createdAt,value
2019-05-19T00:01:23.878Z,14.90
2019-05-19T00:03:53.970Z,14.80
2019-05-19T00:06:24.033Z,14.70
2019-05-19T00:08:54.179Z,15.00
2019-05-19T00:11:24.067Z,15.00
2019-05-19T00:13:55.568Z,15.20
2019-05-19T00:16:25.543Z,15.10
2019-05-19T00:18:55.374Z,15.10
2019-05-19T00:21:25.333Z,15.10
2019-05-19T00:23:56.278Z,15.00
2019-05-19T00:26:26.137Z,14.90
2019-05-19T00:28:56.190Z,14.70
2019-05-19T00:31:26.126Z,14.60
2019-05-19T00:33:56.358Z,14.40
2019-05-19T00:36:27.547Z,14.30
2019-05-19T00:38:57.350Z,14.50
2019-05-19T00:41:27.307Z,14.60
2019-05-19T00:43:57.379Z,14.50
2019-05-19T00:46:27.368Z,14.50
2019-05-19T00:48:57.309Z,14.60
2019-05-19T00:51:27.717Z,14.40
2019-05-19T00:53:57.942Z,14.30
2019-05-19T00:56:28.400Z,14.50
2019-05-19T00:58:59.912Z,14.50
2019-05-19T01:01:29.927Z,14.40
2019-05-19T01:03:59.948Z,14.40
2019-05-19T01:06:29.834Z,14.30
2019-05-19T01:08:59.912Z,14.20
2019-05-19T01:11:29.919Z,14.30
2019-05-19T01:14:00.116Z,14.30
2019-05-19T01:16:30.104Z,14.30
2019-05-19T01:19:00.155Z,14.40
2019-05-19T01:21:30.513Z,14.30
2019-05-19T01:24:00.431Z,14.20
2019-05-19T01:26:30.381Z,14.20
2019-05-19T01:29:00.357Z,14.00
2019-05-19T01:31:30.343Z,14.00
2019-05-19T01:34:00.676Z,13.90
2019-05-19T01:36:30.647Z,13.80
2019-05-19T01:39:00.547Z,13.80
2019-05-19T01:41:32.159Z,13.80
2019-05-19T01:44:02.195Z,13.70
2019-05-19T01:46:32.157Z,13.60
2019-05-19T01:49:02.127Z,13.30
2019-05-19T01:51:32.131Z,13.20
2019-05-19T01:54:02.136Z,13.20
2019-05-19T01:56:32.093Z,13.00
2019-05-19T01:59:02.060Z,12.90
2019-05-19T02:01:32.926Z,13.20
2019-05-19T02:04:02.996Z,12.90
2019-05-19T02:06:33.039Z,13.00
2019-05-19T02:09:04.719Z,13.20
2019-05-19T02:11:34.915Z,13.20
2019-05-19T02:14:05.017Z,13.20
2019-05-19T02:16:35.953Z,13.40
2019-05-19T02:19:05.931Z,13.40
2019-05-19T02:21:35.848Z,13.30
2019-05-19T02:24:05.846Z,13.50
2019-05-19T02:26:35.850Z,13.40
2019-05-19T02:29:06.094Z,13.20
2019-05-19T02:31:36.046Z,12.80
2019-05-19T02:34:06.034Z,12.30
2019-05-19T02:36:35.998Z,12.30
2019-05-19T02:39:06.945Z,12.50
2019-05-19T02:41:39.565Z,12.40
2019-05-19T02:44:09.734Z,12.50
2019-05-19T02:46:41.570Z,12.20
2019-05-19T02:49:11.917Z,12.40
2019-05-19T02:51:44.498Z,12.20
2019-05-19T02:54:15.030Z,12.00
2019-05-19T02:56:47.022Z,12.20
2019-05-19T02:59:18.350Z,12.50
2019-05-19T03:02:02.433Z,12.40
2019-05-19T03:04:32.879Z,12.00
2019-05-19T03:07:03.249Z,12.10
2019-05-19T03:09:33.289Z,12.20
2019-05-19T03:12:03.599Z,12.40
2019-05-19T03:14:33.492Z,12.50
2019-05-19T03:17:03.450Z,11.90
2019-05-19T03:19:33.805Z,12.30
2019-05-19T03:22:03.797Z,12.40
2019-05-19T03:24:33.971Z,12.50
2019-05-19T03:27:04.368Z,12.60
2019-05-19T03:29:38.637Z,12.60
2019-05-19T03:32:30.443Z,12.30
2019-05-19T03:35:00.466Z,11.80
2019-05-19T03:37:30.425Z,12.10
2019-05-19T03:40:02.031Z,12.00
2019-05-19T03:42:31.932Z,12.20
2019-05-19T03:45:01.918Z,12.20
2019-05-19T03:47:32.017Z,11.90
2019-05-19T03:50:01.953Z,11.70
2019-05-19T03:52:32.975Z,11.80
2019-05-19T03:55:02.954Z,11.70
2019-05-19T03:57:32.905Z,11.50
2019-05-19T04:00:02.901Z,11.60
2019-05-19T04:02:33.034Z,11.60
2019-05-19T04:05:03.072Z,11.70
2019-05-19T04:07:33.035Z,11.90
2019-05-19T04:10:03.299Z,12.10
2019-05-19T04:12:33.287Z,12.20
2019-05-19T04:15:03.292Z,12.30
2019-05-19T04:17:33.115Z,12.10
2019-05-19T04:20:03.437Z,11.80
2019-05-19T04:22:33.391Z,11.50
2019-05-19T04:25:03.757Z,11.80
2019-05-19T04:27:33.761Z,12.20
2019-05-19T04:30:04.450Z,12.40
2019-05-19T04:32:34.425Z,12.20
2019-05-19T04:35:04.663Z,12.00
2019-05-19T04:37:34.592Z,12.20
2019-05-19T04:40:04.876Z,12.00
2019-05-19T04:42:34.851Z,12.20
2019-05-19T04:45:05.507Z,12.20
2019-05-19T04:47:35.770Z,12.20
2019-05-19T04:50:06.363Z,12.10
2019-05-19T04:52:36.522Z,12.40
2019-05-19T04:55:07.930Z,12.20
2019-05-19T04:57:37.848Z,12.20
2019-05-19T05:00:08.217Z,12.10
2019-05-19T05:02:38.433Z,12.40
2019-05-19T05:05:09.432Z,12.10
2019-05-19T05:07:39.593Z,12.40
2019-05-19T05:10:09.851Z,12.30
2019-05-19T05:12:39.748Z,12.30
2019-05-19T05:15:10.098Z,12.30
2019-05-19T05:17:39.971Z,12.20
2019-05-19T05:20:10.173Z,12.30
2019-05-19T05:22:41.451Z,12.30
2019-05-19T05:25:11.716Z,12.20
2019-05-19T05:27:41.694Z,12.30
2019-05-19T05:30:12.007Z,12.50
2019-05-19T05:32:42.263Z,12.40
2019-05-19T05:35:12.489Z,12.50
2019-05-19T05:37:42.362Z,12.50
2019-05-19T05:40:12.638Z,12.40
2019-05-19T05:42:43.801Z,12.60
2019-05-19T05:45:13.928Z,12.90
2019-05-19T05:47:43.806Z,12.80
2019-05-19T05:50:13.789Z,12.90
2019-05-19T05:52:43.870Z,13.00
2019-05-19T05:55:13.983Z,13.00
2019-05-19T05:57:44.122Z,13.10
2019-05-19T06:00:15.924Z,13.20
2019-05-19T06:02:46.409Z,13.30
2019-05-19T06:05:16.428Z,13.40
2019-05-19T06:07:46.599Z,13.50
2019-05-19T06:10:16.798Z,13.70
2019-05-19T06:12:47.178Z,14.00
2019-05-19T06:15:17.179Z,14.00
2019-05-19T06:17:47.198Z,14.10
2019-05-19T06:20:17.562Z,14.30
2019-05-19T06:22:56.563Z,14.50
2019-05-19T06:25:19.468Z,14.50
2019-05-19T06:27:49.749Z,14.50
2019-05-19T06:30:19.723Z,14.70
2019-05-19T06:32:51.987Z,14.90
2019-05-19T06:35:22.976Z,14.90
2019-05-19T06:37:53.014Z,15.00
2019-05-19T06:40:23.076Z,15.00
2019-05-19T06:42:53.083Z,15.00
2019-05-19T06:45:23.077Z,15.20
2019-05-19T06:47:53.113Z,15.30
2019-05-19T06:50:23.453Z,15.30
2019-05-19T06:52:53.488Z,15.50
2019-05-19T06:55:23.481Z,15.30
2019-05-19T06:57:53.496Z,15.30
2019-05-19T07:00:23.566Z,15.50
2019-05-19T07:02:53.514Z,15.50
2019-05-19T07:05:23.495Z,15.70
2019-05-19T07:07:54.690Z,15.70
2019-05-19T07:10:24.651Z,15.80
2019-05-19T07:12:54.709Z,16.10
2019-05-19T07:15:24.613Z,16.20
2019-05-19T07:17:54.498Z,16.30
2019-05-19T07:20:29.516Z,16.40
2019-05-19T07:22:59.825Z,16.30
2019-05-19T07:25:30.914Z,16.40
2019-05-19T07:28:00.795Z,16.50
2019-05-19T07:30:30.855Z,16.80
2019-05-19T07:33:00.851Z,17.10
2019-05-19T07:35:31.071Z,17.40
2019-05-19T07:38:01.046Z,17.30
2019-05-19T07:40:31.066Z,17.40
2019-05-19T07:43:01.026Z,17.60
2019-05-19T07:45:31.098Z,17.40
2019-05-19T07:48:01.523Z,17.50
2019-05-19T07:50:31.519Z,17.70
2019-05-19T07:53:01.658Z,17.90
2019-05-19T07:55:32.048Z,17.90
2019-05-19T07:58:02.357Z,17.90
2019-05-19T08:00:33.374Z,18.10
2019-05-19T08:03:03.643Z,18.10
2019-05-19T08:05:34.481Z,18.50
2019-05-19T08:08:04.637Z,19.00
2019-05-19T08:10:34.894Z,19.30
2019-05-19T08:13:04.930Z,19.40
2019-05-19T08:15:34.932Z,19.70
2019-05-19T08:18:04.968Z,19.70
2019-05-19T08:20:34.933Z,19.40
2019-05-19T08:23:04.912Z,19.20
2019-05-19T08:25:34.888Z,19.30
2019-05-19T08:28:08.821Z,19.60
2019-05-19T08:30:36.456Z,19.80
2019-05-19T08:33:06.511Z,19.90
2019-05-19T08:35:36.420Z,20.00
2019-05-19T08:38:06.599Z,20.20
2019-05-19T08:40:36.602Z,20.30
2019-05-19T08:43:06.635Z,20.50
2019-05-19T08:45:37.395Z,20.60
2019-05-19T08:48:07.446Z,20.80
2019-05-19T08:50:37.465Z,20.80
2019-05-19T08:53:07.442Z,21.20
2019-05-19T08:55:37.686Z,21.30
2019-05-19T08:58:07.860Z,21.30
2019-05-19T09:00:38.641Z,21.60
2019-05-19T09:03:08.835Z,21.90
2019-05-19T09:05:38.864Z,22.00
2019-05-19T09:08:08.751Z,21.90
2019-05-19T09:10:38.778Z,21.90
2019-05-19T09:13:08.670Z,21.80
2019-05-19T09:15:38.619Z,21.80
2019-05-19T09:18:08.593Z,22.00
2019-05-19T09:20:38.587Z,22.50
2019-05-19T09:23:08.477Z,22.70
2019-05-19T09:25:38.447Z,22.80
2019-05-19T09:28:08.412Z,22.80
2019-05-19T09:30:38.390Z,22.50
2019-05-19T09:33:08.447Z,22.90
2019-05-19T09:35:38.960Z,23.10
2019-05-19T09:38:09.162Z,23.30
2019-05-19T09:40:38.987Z,23.30
2019-05-19T09:43:08.881Z,23.80
2019-05-19T09:45:38.776Z,23.80
2019-05-19T09:48:08.595Z,24.20
2019-05-19T09:50:38.657Z,24.40
2019-05-19T09:53:08.611Z,24.40
2019-05-19T09:55:38.513Z,24.00
2019-05-19T09:58:08.376Z,23.90
2019-05-19T10:00:38.337Z,24.20
2019-05-19T10:03:08.304Z,24.30
2019-05-19T10:05:38.297Z,24.10
2019-05-19T10:08:08.862Z,24.10
2019-05-19T10:11:21.619Z,24.50
2019-05-19T10:13:51.978Z,24.60
2019-05-19T10:16:22.045Z,24.80
2019-05-19T10:18:53.307Z,24.30
2019-05-19T10:21:23.245Z,24.40
2019-05-19T10:23:53.474Z,24.20
2019-05-19T10:26:23.419Z,24.60
2019-05-19T10:28:53.362Z,25.00
2019-05-19T10:31:23.681Z,24.90
2019-05-19T10:33:53.642Z,25.00
2019-05-19T10:36:23.614Z,24.80
2019-05-19T10:38:53.569Z,24.70
2019-05-19T10:41:23.591Z,24.50
2019-05-19T10:44:01.100Z,24.50
2019-05-19T10:46:31.317Z,24.50
2019-05-19T10:49:01.293Z,24.80
2019-05-19T10:51:31.521Z,25.00
2019-05-19T10:54:01.517Z,25.10
2019-05-19T10:56:31.290Z,24.90
2019-05-19T10:59:01.628Z,24.10
2019-05-19T11:01:31.673Z,24.20
2019-05-19T11:04:01.806Z,24.50
2019-05-19T11:06:31.776Z,24.80
2019-05-19T11:09:01.912Z,25.30
2019-05-19T11:11:33.394Z,25.20
2019-05-19T11:14:03.455Z,25.30
2019-05-19T11:16:33.528Z,25.30
2019-05-19T11:19:04.141Z,25.60
2019-05-19T11:21:34.094Z,25.90
2019-05-19T11:24:04.357Z,25.90
2019-05-19T11:26:34.344Z,25.90
2019-05-19T11:29:07.450Z,25.70
2019-05-19T11:31:37.978Z,26.00
2019-05-19T11:34:08.013Z,25.60
2019-05-19T11:36:37.957Z,25.60
2019-05-19T11:39:08.976Z,25.90
2019-05-19T11:41:38.917Z,26.10
2019-05-19T11:44:08.864Z,26.10
2019-05-19T11:46:38.774Z,26.60
2019-05-19T11:49:08.930Z,26.30
2019-05-19T11:51:38.797Z,26.50
2019-05-19T11:54:09.008Z,26.50
2019-05-19T11:56:39.079Z,26.10
2019-05-19T11:59:08.978Z,26.40
2019-05-19T12:01:38.961Z,25.70
2019-05-19T12:04:09.141Z,25.50
2019-05-19T12:06:40.129Z,25.80
2019-05-19T12:09:10.070Z,26.10
2019-05-19T12:11:40.272Z,26.20
2019-05-19T12:14:10.202Z,26.10
2019-05-19T12:16:40.190Z,26.70
2019-05-19T12:19:10.101Z,26.60
2019-05-19T12:21:40.377Z,27.00
2019-05-19T12:24:10.342Z,26.90
2019-05-19T12:26:40.518Z,27.20
2019-05-19T12:29:10.404Z,27.30
2019-05-19T12:31:40.632Z,27.10
2019-05-19T12:34:10.607Z,27.10
2019-05-19T12:36:40.669Z,27.00
2019-05-19T12:39:10.736Z,26.50
2019-05-19T12:41:40.692Z,25.70
2019-05-19T12:44:10.642Z,25.20
2019-05-19T12:46:40.882Z,24.90
2019-05-19T12:49:10.836Z,24.40
2019-05-19T12:51:40.762Z,25.00
2019-05-19T12:54:11.015Z,25.50
2019-05-19T12:56:40.978Z,26.00
2019-05-19T12:59:11.278Z,26.50
2019-05-19T13:01:41.543Z,26.80
2019-05-19T13:04:11.591Z,26.60
2019-05-19T13:06:42.090Z,26.90
2019-05-19T13:09:12.467Z,26.70
2019-05-19T13:11:42.498Z,26.30
2019-05-19T13:14:12.434Z,26.50
2019-05-19T13:16:42.658Z,26.50
2019-05-19T13:19:12.629Z,26.20
2019-05-19T13:21:42.588Z,26.50
2019-05-19T13:24:12.572Z,26.90
2019-05-19T13:26:55.605Z,27.30
2019-05-19T13:29:14.443Z,27.00
2019-05-19T13:31:44.325Z,27.10
2019-05-19T13:34:14.201Z,26.90
2019-05-19T13:36:44.221Z,27.00
2019-05-19T13:39:14.262Z,26.70
2019-05-19T13:41:44.476Z,26.90
2019-05-19T13:44:14.610Z,27.30
2019-05-19T13:46:44.478Z,27.30
2019-05-19T13:49:14.374Z,27.20
2019-05-19T13:51:44.666Z,27.40
2019-05-19T13:54:14.637Z,26.40
2019-05-19T13:56:44.751Z,25.80
2019-05-19T13:59:14.826Z,26.00
2019-05-19T14:01:44.810Z,25.60
2019-05-19T14:04:14.767Z,25.50
2019-05-19T14:06:44.710Z,25.20
2019-05-19T14:09:15.287Z,25.00
2019-05-19T14:11:45.192Z,25.10
2019-05-19T14:14:15.135Z,25.50
2019-05-19T14:16:45.113Z,25.60
2019-05-19T14:19:15.054Z,25.80
2019-05-19T14:21:44.886Z,25.50
2019-05-19T14:24:14.698Z,25.40
2019-05-19T14:26:44.698Z,25.30
2019-05-19T14:29:14.675Z,24.90
2019-05-19T14:31:44.654Z,24.80
2019-05-19T14:34:14.947Z,25.00
2019-05-19T14:36:44.815Z,25.20
2019-05-19T14:39:14.762Z,25.30
2019-05-19T14:41:49.142Z,25.40
2019-05-19T14:44:19.123Z,25.70
2019-05-19T14:46:48.991Z,25.30
2019-05-19T14:49:18.972Z,25.40
2019-05-19T14:51:48.910Z,25.10
2019-05-19T14:54:19.059Z,25.00
2019-05-19T14:56:48.928Z,25.40
2019-05-19T14:59:18.851Z,25.80
2019-05-19T15:01:48.718Z,25.50
2019-05-19T15:04:18.629Z,25.40
2019-05-19T15:06:48.911Z,25.90
2019-05-19T15:09:19.119Z,26.00
2019-05-19T15:11:49.006Z,26.10
2019-05-19T15:14:18.966Z,26.60
2019-05-19T15:16:48.976Z,27.00
2019-05-19T15:19:19.283Z,27.30
2019-05-19T15:21:49.215Z,26.80
2019-05-19T15:24:19.255Z,26.90
2019-05-19T15:26:50.094Z,27.00
2019-05-19T15:29:19.993Z,26.80
2019-05-19T15:31:50.083Z,26.50
2019-05-19T15:34:20.011Z,26.40
2019-05-19T15:36:50.195Z,26.20
2019-05-19T15:39:20.079Z,26.00
2019-05-19T15:41:50.054Z,25.20
2019-05-19T15:44:19.942Z,25.00
2019-05-19T15:46:49.968Z,24.80
2019-05-19T15:49:19.934Z,24.80
2019-05-19T15:52:02.433Z,24.80
2019-05-19T15:54:21.529Z,24.70
2019-05-19T15:56:51.495Z,24.50
2019-05-19T15:59:21.519Z,23.90
2019-05-19T16:01:51.543Z,23.30
2019-05-19T16:04:22.737Z,22.90
2019-05-19T16:06:52.872Z,22.60
2019-05-19T16:09:22.934Z,22.10
2019-05-19T16:11:52.990Z,21.80
2019-05-19T16:14:23.071Z,21.70
2019-05-19T16:16:53.254Z,21.60
2019-05-19T16:19:23.244Z,21.50
2019-05-19T16:21:53.218Z,21.40
2019-05-19T16:24:23.263Z,21.30
2019-05-19T16:26:53.141Z,21.10
2019-05-19T16:29:24.250Z,21.10
2019-05-19T16:31:54.467Z,21.20
2019-05-19T16:34:24.906Z,21.30
2019-05-19T16:36:55.782Z,21.40
2019-05-19T16:39:25.746Z,21.50
2019-05-19T16:41:55.635Z,21.60
2019-05-19T16:44:25.869Z,21.70
2019-05-19T16:46:56.203Z,22.00
2019-05-19T16:49:26.458Z,22.20
2019-05-19T16:51:56.344Z,22.20
2019-05-19T16:54:30.635Z,22.20
2019-05-19T16:57:00.654Z,22.30
2019-05-19T16:59:30.606Z,22.40
2019-05-19T17:02:00.506Z,22.50
2019-05-19T17:04:30.638Z,23.00
2019-05-19T17:07:02.991Z,23.10
2019-05-19T17:09:32.901Z,23.30
2019-05-19T17:12:02.860Z,23.00
2019-05-19T17:14:32.732Z,23.30
2019-05-19T17:17:03.773Z,23.60
2019-05-19T17:19:33.633Z,23.60
2019-05-19T17:22:03.779Z,23.70
2019-05-19T17:24:33.770Z,23.60
2019-05-19T17:27:04.134Z,23.60
2019-05-19T17:29:34.035Z,23.30
2019-05-19T17:32:05.983Z,23.40
2019-05-19T17:34:35.630Z,23.60
2019-05-19T17:37:07.360Z,24.10
2019-05-19T17:39:37.622Z,24.40
2019-05-19T17:42:07.785Z,24.40
2019-05-19T17:44:37.808Z,24.00
2019-05-19T17:47:08.164Z,24.20
2019-05-19T17:49:38.065Z,23.60
2019-05-19T17:52:08.145Z,23.40
2019-05-19T17:54:38.206Z,23.80
2019-05-19T17:57:08.244Z,23.80
2019-05-19T17:59:41.192Z,23.40
2019-05-19T18:02:11.669Z,23.00
2019-05-19T18:04:41.609Z,22.60
2019-05-19T18:07:12.555Z,22.20
2019-05-19T18:09:42.576Z,22.00
2019-05-19T18:12:12.585Z,21.90
2019-05-19T18:14:43.078Z,21.60
2019-05-19T18:17:13.461Z,21.40
2019-05-19T18:19:43.414Z,21.20
2019-05-19T18:22:13.337Z,21.00
2019-05-19T18:24:43.655Z,20.90
2019-05-19T18:27:13.632Z,20.60
2019-05-19T18:29:43.513Z,20.50
2019-05-19T18:32:13.541Z,20.60
2019-05-19T18:34:43.730Z,20.40
2019-05-19T18:37:13.748Z,20.10
2019-05-19T18:39:44.438Z,20.00
2019-05-19T18:42:14.325Z,20.00
2019-05-19T18:44:45.171Z,19.90
2019-05-19T18:47:15.636Z,19.80
2019-05-19T18:49:45.795Z,19.90
2019-05-19T18:52:15.833Z,19.80
2019-05-19T18:54:45.935Z,19.50
2019-05-19T18:57:17.009Z,19.50
2019-05-19T18:59:47.898Z,19.50
2019-05-19T19:02:18.358Z,19.50
2019-05-19T19:04:48.283Z,19.30
2019-05-19T19:07:18.316Z,19.20
2019-05-19T19:09:48.423Z,19.00
2019-05-19T19:12:18.327Z,19.00
2019-05-19T19:14:48.239Z,18.90
2019-05-19T19:17:18.223Z,18.90
2019-05-19T19:19:48.154Z,18.70
2019-05-19T19:22:18.074Z,18.60
2019-05-19T19:24:48.137Z,18.40
2019-05-19T19:27:18.367Z,18.40
2019-05-19T19:30:02.365Z,18.50
2019-05-19T19:32:19.911Z,18.60
2019-05-19T19:34:50.141Z,18.60
2019-05-19T19:37:20.205Z,18.50
2019-05-19T19:39:50.313Z,18.60
2019-05-19T19:42:20.360Z,18.30
2019-05-19T19:44:50.592Z,18.40
2019-05-19T19:47:21.075Z,18.50
2019-05-19T19:49:51.014Z,18.30
2019-05-19T19:52:20.936Z,18.40
2019-05-19T19:54:50.849Z,18.10
2019-05-19T19:57:20.887Z,18.00
2019-05-19T19:59:51.111Z,18.00
2019-05-19T20:02:21.282Z,18.00
2019-05-19T20:04:51.421Z,17.90
2019-05-19T20:07:21.448Z,18.00
2019-05-19T20:09:52.366Z,18.10
2019-05-19T20:12:22.354Z,18.10
2019-05-19T20:14:52.165Z,17.90
2019-05-19T20:17:22.497Z,17.90
2019-05-19T20:19:52.436Z,18.10
2019-05-19T20:22:22.894Z,18.00
2019-05-19T20:24:52.862Z,17.90
2019-05-19T20:27:22.757Z,17.70
2019-05-19T20:29:52.644Z,17.60
2019-05-19T20:32:23.161Z,17.60
2019-05-19T20:34:53.188Z,17.80
2019-05-19T20:37:23.081Z,17.90
2019-05-19T20:39:52.990Z,18.00
2019-05-19T20:42:22.814Z,18.00
2019-05-19T20:44:52.798Z,17.70
2019-05-19T20:47:22.850Z,17.40
2019-05-19T20:49:52.641Z,17.30
2019-05-19T20:52:22.778Z,17.40
2019-05-19T20:54:52.640Z,17.30
2019-05-19T20:57:22.705Z,17.30
2019-05-19T20:59:53.210Z,17.20
2019-05-19T21:02:23.296Z,17.20
2019-05-19T21:04:53.262Z,17.20
2019-05-19T21:07:23.216Z,17.30
2019-05-19T21:09:53.180Z,17.20
2019-05-19T21:12:23.067Z,17.20
2019-05-19T21:14:53.070Z,17.20
2019-05-19T21:17:23.108Z,17.10
2019-05-19T21:19:54.880Z,17.00
2019-05-19T21:22:25.006Z,16.80
2019-05-19T21:24:55.267Z,16.70
2019-05-19T21:27:25.498Z,16.60
2019-05-19T21:29:55.677Z,16.70
2019-05-19T21:32:25.583Z,16.70
2019-05-19T21:34:55.836Z,16.80
2019-05-19T21:37:25.732Z,16.80
2019-05-19T21:39:55.871Z,16.50
2019-05-19T21:42:25.916Z,16.30
2019-05-19T21:44:56.014Z,16.20
2019-05-19T21:47:25.890Z,16.10
2019-05-19T21:49:55.705Z,16.30
2019-05-19T21:52:25.703Z,16.20
2019-05-19T21:54:55.573Z,16.10
2019-05-19T21:57:25.556Z,16.10
2019-05-19T21:59:55.393Z,16.00
2019-05-19T22:02:26.324Z,16.00
2019-05-19T22:04:57.493Z,16.00
2019-05-19T22:07:34.794Z,15.80
2019-05-19T22:10:04.964Z,15.70
2019-05-19T22:12:34.938Z,15.50
2019-05-19T22:15:05.314Z,15.60
2019-05-19T22:17:35.150Z,15.60
2019-05-19T22:20:05.469Z,15.60
2019-05-19T22:22:35.774Z,15.60
2019-05-19T22:25:06.041Z,15.60
2019-05-19T22:27:36.030Z,15.60
2019-05-19T22:30:06.462Z,15.50
2019-05-19T22:32:36.434Z,15.40
2019-05-19T22:35:07.213Z,15.30
2019-05-19T22:37:37.271Z,15.50
2019-05-19T22:40:07.766Z,15.70
2019-05-19T22:42:38.212Z,15.60
2019-05-19T22:45:08.382Z,15.50
2019-05-19T22:47:38.282Z,15.40
2019-05-19T22:50:08.645Z,15.30
2019-05-19T22:52:39.485Z,15.30
2019-05-19T22:55:10.427Z,15.50
2019-05-19T22:57:40.431Z,15.30
2019-05-19T23:00:12.118Z,15.00
2019-05-19T23:02:43.843Z,14.90
2019-05-19T23:05:14.088Z,15.00
2019-05-19T23:07:44.079Z,15.40
2019-05-19T23:10:15.771Z,15.40
2019-05-19T23:12:45.807Z,15.30
2019-05-19T23:15:17.442Z,15.30
2019-05-19T23:17:47.494Z,15.40
2019-05-19T23:20:17.567Z,15.20
2019-05-19T23:22:47.456Z,14.90
2019-05-19T23:25:17.433Z,14.80
2019-05-19T23:27:47.831Z,14.60
2019-05-19T23:30:18.401Z,14.50
2019-05-19T23:32:48.547Z,14.80
2019-05-19T23:35:18.450Z,14.90
2019-05-19T23:37:48.441Z,15.10
2019-05-19T23:40:18.667Z,15.00
2019-05-19T23:42:48.557Z,14.90
2019-05-19T23:45:19.510Z,15.00
